Time;durP1;ratioP1;P1;durP2;ratioP2;P2;SDS_P1;SDS_P2;PMS_P1;PMS_P2;Temp;Humidity;BMP_temperature;BMP_pressure;BME280_temperature;BME280_humidity;BME280_pressure;Samples;Min_cycle;Max_cycle;Signal;HPM_P1;HPM_P2
2022/07/02 00:02:01;;;;;;;1.67;0.50;;;15.10;99.90;;;;;;4992932;28;20447;-88
2022/07/02 00:04:32;;;;;;;0.80;0.43;;;15.10;99.90;;;;;;5008982;28;20502;-88
2022/07/02 00:06:58;;;;;;;1.65;0.60;;;15.10;99.90;;;;;;4992571;28;20030;-88
2022/07/02 00:09:26;;;;;;;1.10;0.57;;;15.00;99.90;;;;;;4992077;28;20531;-88
2022/07/02 00:11:58;;;;;;;1.02;0.57;;;15.00;99.90;;;;;;4991408;28;20049;-88
2022/07/02 00:14:24;;;;;;;1.65;0.65;;;15.00;99.90;;;;;;4990025;28;20027;-89
2022/07/02 00:16:53;;;;;;;0.77;0.40;;;15.00;99.90;;;;;;4986663;28;20422;-90
2022/07/02 00:19:20;;;;;;;1.98;0.60;;;15.00;99.90;;;;;;4991783;28;20022;-88
2022/07/02 00:21:47;;;;;;;1.52;0.50;;;14.90;99.90;;;;;;5008779;28;20088;-88
2022/07/02 00:24:12;;;;;;;0.90;0.50;;;14.90;99.90;;;;;;4993642;28;20041;-88
2022/07/02 00:26:40;;;;;;;1.55;0.60;;;15.10;99.90;;;;;;5008150;28;20034;-88
2022/07/02 00:29:14;;;;;;;1.33;0.60;;;15.50;99.90;;;;;;5004756;28;20132;-88
2022/07/02 00:31:40;;;;;;;2.25;0.80;;;14.80;99.90;;;;;;5009620;28;20049;-87
2022/07/02 00:34:06;;;;;;;1.98;0.40;;;14.80;99.90;;;;;;4988707;28;20030;-89
2022/07/02 00:36:33;;;;;;;1.98;0.70;;;14.80;99.90;;;;;;4992977;28;20034;-88
2022/07/02 00:39:00;;;;;;;1.70;0.65;;;14.80;99.90;;;;;;5011551;28;20058;-88
2022/07/02 00:41:27;;;;;;;1.00;0.50;;;15.40;99.90;;;;;;5009642;28;20022;-88
2022/07/02 00:43:54;;;;;;;1.85;0.80;;;14.80;99.90;;;;;;5005369;28;20083;-88
2022/07/02 00:46:21;;;;;;;0.90;0.50;;;14.80;99.90;;;;;;5008067;28;20125;-88
2022/07/02 00:48:47;;;;;;;1.60;0.52;;;14.80;99.90;;;;;;5010457;28;20062;-88
2022/07/02 00:51:12;;;;;;;1.83;0.60;;;15.20;99.90;;;;;;4991925;28;20030;-88
2022/07/02 00:53:38;;;;;;;1.38;0.57;;;14.80;99.90;;;;;;4991671;28;20061;-88
2022/07/02 00:56:06;;;;;;;1.02;0.50;;;14.80;99.90;;;;;;5010403;28;20030;-89
2022/07/02 00:58:32;;;;;;;1.38;0.50;;;14.50;99.90;;;;;;4990648;28;20041;-89
2022/07/02 01:01:00;;;;;;;0.80;0.50;;;14.80;99.90;;;;;;4992841;28;20030;-87
2022/07/02 01:03:26;;;;;;;2.03;0.68;;;14.80;99.90;;;;;;4990222;28;20041;-88
2022/07/02 01:05:52;;;;;;;2.40;0.80;;;14.80;99.90;;;;;;5005713;28;20030;-89
2022/07/02 01:11:08;;;;;;;1.45;0.60;;;14.80;99.90;;;;;;5010515;28;20045;-88
2022/07/02 01:13:34;;;;;;;2.25;0.77;;;14.80;99.90;;;;;;4990021;28;20095;-88
2022/07/02 01:16:01;;;;;;;1.92;0.70;;;14.80;99.90;;;;;;4990109;28;20040;-88
2022/07/02 01:18:27;;;;;;;2.15;0.60;;;14.90;99.90;;;;;;4993341;28;20474;-88
2022/07/02 01:20:53;;;;;;;2.03;0.60;;;14.80;99.90;;;;;;5014770;28;20045;-87
2022/07/02 01:23:19;;;;;;;1.48;0.60;;;14.80;99.90;;;;;;4997955;28;20057;-88
2022/07/02 01:25:52;;;;;;;1.05;0.47;;;14.90;99.90;;;;;;5017937;28;20042;-88
2022/07/02 01:28:21;;;;;;;1.55;0.60;;;14.90;99.90;;;;;;5017534;28;20034;-88
2022/07/02 01:30:48;;;;;;;1.27;0.60;;;14.90;99.90;;;;;;4991681;28;20466;-89
2022/07/02 01:33:14;;;;;;;1.95;0.85;;;14.80;99.90;;;;;;4992146;28;20030;-88
2022/07/02 04:10:34;;;;;;;3.25;1.40;;;13.80;99.90;;;;;;4992148;28;20120;-91
2022/07/02 04:13:16;;;;;;;2.60;1.17;;;13.80;99.90;;;;;;4977559;28;20042;-91
2022/07/02 04:19:12;;;;;;;4.68;1.27;;;13.90;99.90;;;;;;5016780;28;20047;-91
2022/07/02 04:22:33;;;;;;;3.50;1.20;;;13.90;99.90;;;;;;4992372;28;20034;-92
2022/07/02 08:00:19;;;;;;;0.28;0.10;;;21.00;99.90;;;;;;1323293;22;20291;-89
2022/07/02 08:06:12;;;;;;;;;;;21.00;99.90;;;;;;5029161;28;20111;-90
2022/07/02 08:08:55;;;;;;;2.08;0.10;;;21.30;99.90;;;;;;4996193;28;19967;-90
2022/07/02 08:11:29;;;;;;;0.30;0.10;;;21.40;99.90;;;;;;4998097;28;20034;-91
2022/07/02 08:13:58;;;;;;;0.65;0.20;;;21.40;99.90;;;;;;4996010;28;20048;-89
2022/07/02 08:16:28;;;;;;;0.38;0.20;;;21.60;99.90;;;;;;5001007;28;20025;-90
2022/07/02 08:18:56;;;;;;;0.20;0.10;;;21.60;99.90;;;;;;5008676;28;20034;-89
2022/07/02 08:21:25;;;;;;;2.08;0.20;;;21.60;99.90;;;;;;5006527;28;20014;-90
2022/07/02 08:23:51;;;;;;;0.85;0.20;;;21.70;99.90;;;;;;4999614;28;20034;-90
2022/07/02 08:26:28;;;;;;;0.52;0.10;;;21.70;99.90;;;;;;4996146;28;20044;-90
2022/07/02 08:29:04;;;;;;;0.20;0.10;;;21.90;99.90;;;;;;5004635;28;20034;-90
2022/07/02 08:31:34;;;;;;;0.65;0.20;;;22.10;99.90;;;;;;4996165;28;20053;-90
2022/07/02 08:34:04;;;;;;;0.32;0.10;;;22.10;99.90;;;;;;5002557;28;20041;-91
2022/07/02 08:36:35;;;;;;;1.17;0.38;;;22.30;99.90;;;;;;4992236;28;20507;-91
2022/07/02 08:39:06;;;;;;;0.28;0.10;;;22.50;99.90;;;;;;5000811;28;20076;-90
2022/07/02 08:41:43;;;;;;;0.70;0.10;;;22.70;99.90;;;;;;5004719;28;20077;-90
2022/07/02 08:44:25;;;;;;;0.45;0.20;;;22.70;99.90;;;;;;5013917;28;20054;-90
2022/07/02 08:47:07;;;;;;;0.15;0.10;;;22.90;99.90;;;;;;4996022;28;20100;-90
2022/07/02 08:49:35;;;;;;;0.20;0.10;;;23.00;99.90;;;;;;4991718;28;20026;-89
2022/07/02 08:52:07;;;;;;;0.30;0.00;;;23.20;99.90;;;;;;4990418;28;20038;-90
2022/07/02 08:55:06;;;;;;;0.65;0.30;;;23.30;99.90;;;;;;4989052;28;20026;-90
2022/07/02 08:57:54;;;;;;;0.50;0.10;;;23.40;99.90;;;;;;4993993;28;20022;-90
2022/07/02 09:00:30;;;;;;;0.08;0.00;;;23.60;99.70;;;;;;4994426;28;20033;-90
2022/07/02 09:02:58;;;;;;;0.00;0.00;;;23.70;99.60;;;;;;4994869;28;20037;-90
2022/07/02 09:05:58;;;;;;;0.10;0.10;;;23.90;99.60;;;;;;5009597;28;20085;-90
2022/07/02 09:08:43;;;;;;;;;;;;;;;;;;;;;
2022/07/02 09:11:36;;;;;;;0.43;0.20;;;24.30;98.70;;;;;;5022877;28;20113;-91
2022/07/02 09:14:05;;;;;;;0.30;0.10;;;24.40;98.60;;;;;;5007481;28;20041;-90
2022/07/02 09:16:46;;;;;;;1.45;0.20;;;24.70;98.00;;;;;;5009382;28;20014;-89
2022/07/02 09:19:12;;;;;;;0.88;0.20;;;24.80;96.70;;;;;;5004099;28;20022;-90
2022/07/02 09:21:50;;;;;;;0.20;0.05;;;24.80;96.40;;;;;;4997992;28;20037;-89
2022/07/02 09:24:34;;;;;;;0.52;0.10;;;24.90;95.70;;;;;;5003594;28;20082;-88
2022/07/02 09:27:11;;;;;;;0.35;0.13;;;25.00;96.80;;;;;;4997200;28;20117;-89
2022/07/02 09:29:47;;;;;;;0.10;0.10;;;25.10;95.80;;;;;;4978337;28;20065;-89
2022/07/02 09:32:49;;;;;;;0.30;0.10;;;24.90;95.00;;;;;;4999547;28;20030;-90
2022/07/02 09:35:57;;;;;;;0.10;0.00;;;25.20;94.70;;;;;;4983416;28;20031;-89
2022/07/02 09:38:23;;;;;;;1.42;0.10;;;25.20;93.30;;;;;;4967809;28;20061;-87
2022/07/02 09:44:07;;;;;;;0.13;0.03;;;25.30;92.90;;;;;;5016566;28;20038;-89
2022/07/02 09:46:44;;;;;;;0.47;0.15;;;25.50;93.30;;;;;;4993193;28;20428;-89
2022/07/02 09:49:55;;;;;;;0.20;0.10;;;25.90;94.20;;;;;;5001263;28;20102;-89
2022/07/02 09:52:26;;;;;;;;;;;26.10;92.90;;;;;;4991499;28;20036;-88
2022/07/02 09:55:20;;;;;;;0.73;0.20;;;26.10;92.70;;;;;;4990715;28;19963;-90
2022/07/02 09:58:13;;;;;;;0.28;0.17;;;25.90;93.00;;;;;;4993685;28;20505;-89
2022/07/02 10:01:14;;;;;;;0.75;0.10;;;25.90;92.20;;;;;;4991048;28;20030;-89
2022/07/02 10:04:02;;;;;;;0.35;0.13;;;25.90;92.50;;;;;;5003824;28;20033;-89
2022/07/02 10:06:54;;;;;;;0.40;0.10;;;25.80;91.90;;;;;;4983544;28;20465;-88
2022/07/02 10:13:26;;;;;;;0.30;0.10;;;25.90;91.70;;;;;;4899386;29;20389;-89
2022/07/02 10:16:05;;;;;;;0.15;0.10;;;26.10;91.00;;;;;;4916940;28;20902;-89
2022/07/02 10:18:56;;;;;;;0.43;0.10;;;26.60;89.30;;;;;;4992330;28;20030;-89
2022/07/02 10:21:47;;;;;;;0.20;0.10;;;26.40;90.80;;;;;;4993206;28;20026;-89
2022/07/02 10:24:47;;;;;;;0.28;0.10;;;26.60;91.60;;;;;;4994111;28;20478;-89
2022/07/02 10:27:17;;;;;;;0.28;0.10;;;26.70;91.20;;;;;;4994007;28;20025;-89
2022/07/02 10:29:43;;;;;;;0.60;0.20;;;27.00;90.30;;;;;;4993565;28;20096;-90
2022/07/02 10:32:43;;;;;;;0.70;0.10;;;27.00;89.70;;;;;;4995445;28;20049;-90
2022/07/02 10:35:15;;;;;;;1.60;0.82;;;26.90;90.90;;;;;;4996872;28;20026;-89
2022/07/02 10:37:45;;;;;;;0.10;0.10;;;26.50;90.60;;;;;;4984056;28;20036;-89
2022/07/02 10:40:20;;;;;;;2.28;0.20;;;27.20;90.70;;;;;;4994451;28;20848;-90
2022/07/02 10:42:53;;;;;;;0.50;0.13;;;27.20;90.00;;;;;;4997358;28;20025;-90
2022/07/02 10:45:41;;;;;;;0.10;0.10;;;27.30;88.00;;;;;;5005194;28;20109;-90
2022/07/02 10:48:12;;;;;;;2.35;1.17;;;27.40;90.00;;;;;;4993898;28;20192;-89
2022/07/02 10:50:49;;;;;;;2.75;1.10;;;27.60;87.40;;;;;;4994864;28;20111;-88
2022/07/02 10:53:22;;;;;;;0.73;0.32;;;27.40;86.40;;;;;;5012018;28;20022;-89
2022/07/02 10:55:50;;;;;;;0.47;0.00;;;27.70;87.40;;;;;;4991108;28;20033;-89
2022/07/02 10:58:22;;;;;;;0.28;0.10;;;27.80;88.40;;;;;;5009623;28;20017;-90
2022/07/02 11:00:56;;;;;;;0.52;0.13;;;28.00;86.30;;;;;;5018314;28;20050;-90
2022/07/02 11:03:26;;;;;;;0.10;0.10;;;28.10;86.50;;;;;;4997295;28;20148;-91
2022/07/02 11:06:14;;;;;;;0.45;0.10;;;28.10;84.60;;;;;;4996167;28;20057;-90
2022/07/02 11:08:48;;;;;;;0.10;0.00;;;28.10;84.30;;;;;;4993065;28;20125;-90
2022/07/02 11:11:32;;;;;;;0.20;0.10;;;28.00;84.30;;;;;;5012893;28;20018;-90
2022/07/02 11:14:03;;;;;;;0.90;0.10;;;28.10;85.90;;;;;;5003524;28;20454;-89
2022/07/02 11:16:53;;;;;;;0.28;0.10;;;27.60;82.20;;;;;;4997629;28;20112;-91
2022/07/02 11:19:25;;;;;;;0.73;0.10;;;27.30;83.10;;;;;;4984971;28;20045;-89
2022/07/02 11:21:54;;;;;;;0.25;0.10;;;27.50;83.50;;;;;;5000039;28;20126;-90
2022/07/02 11:24:31;;;;;;;1.15;0.20;;;27.70;85.50;;;;;;4997298;28;20022;-90
2022/07/02 11:26:59;;;;;;;0.20;0.05;;;28.30;83.10;;;;;;4997087;28;20025;-90
2022/07/02 11:29:29;;;;;;;0.30;0.10;;;28.50;79.90;;;;;;4994408;28;20577;-91
2022/07/02 11:31:56;;;;;;;0.25;0.10;;;28.40;81.10;;;;;;5000414;28;20085;-89
2022/07/02 11:34:31;;;;;;;0.40;0.10;;;28.60;79.60;;;;;;5014703;28;20040;-91
2022/07/02 11:37:31;;;;;;;0.20;0.00;;;28.50;80.40;;;;;;4994480;28;20021;-91
2022/07/02 11:40:00;;;;;;;0.53;0.10;;;28.60;77.80;;;;;;4968051;28;20053;-90
2022/07/02 11:42:45;;;;;;;0.22;0.10;;;28.50;76.30;;;;;;5004634;28;20283;-89
2022/07/02 11:45:22;;;;;;;0.25;0.10;;;28.30;76.90;;;;;;4999865;28;20033;-89
2022/07/02 11:47:51;;;;;;;0.20;0.10;;;28.20;77.90;;;;;;5013988;28;20581;-90
2022/07/02 11:50:35;;;;;;;0.95;0.20;;;28.50;80.90;;;;;;5012151;28;20026;-89
2022/07/02 11:53:04;;;;;;;0.90;0.10;;;28.80;77.40;;;;;;4996985;28;20349;-90
2022/07/02 11:55:31;;;;;;;0.10;0.10;;;28.90;78.00;;;;;;5000045;28;20505;-91
2022/07/02 11:58:01;;;;;;;0.25;0.03;;;29.40;77.80;;;;;;4996563;28;20072;-91
2022/07/02 12:00:42;;;;;;;0.30;0.10;;;29.20;74.90;;;;;;5012588;28;20037;-90
2022/07/02 12:03:24;;;;;;;;;;;;;;;;;;;;;
2022/07/02 12:05:55;;;;;;;0.82;0.10;;;29.20;74.60;;;;;;5008875;28;20736;-91
2022/07/02 12:08:21;;;;;;;;;;;29.60;76.10;;;;;;4993453;28;20033;-89
2022/07/02 12:10:46;;;;;;;0.25;0.03;;;29.40;76.70;;;;;;5010607;28;20353;-89
2022/07/02 12:13:12;;;;;;;0.25;0.20;;;29.80;75.40;;;;;;4991608;28;20034;-88
2022/07/02 12:15:42;;;;;;;1.73;0.28;;;29.50;73.00;;;;;;4997213;28;20553;-88
2022/07/02 12:18:18;;;;;;;0.22;0.10;;;29.50;74.50;;;;;;4994193;28;20026;-89
2022/07/02 12:20:44;;;;;;;0.00;0.00;;;29.90;74.80;;;;;;4995110;28;20026;-88
2022/07/02 12:23:10;;;;;;;1.55;0.10;;;29.90;74.60;;;;;;4990671;28;20033;-88
2022/07/02 12:25:48;;;;;;;0.17;0.17;;;30.40;73.50;;;;;;5000908;28;20083;-89
2022/07/02 12:31:05;;;;;;;0.40;0.17;;;30.50;71.80;;;;;;5011473;28;20044;-88
2022/07/02 12:33:35;;;;;;;0.05;0.00;;;30.00;71.80;;;;;;4984117;28;20026;-88
2022/07/02 12:36:04;;;;;;;0.45;0.10;;;29.60;72.40;;;;;;5005512;28;20101;-88
2022/07/02 12:38:42;;;;;;;0.13;0.10;;;29.30;72.80;;;;;;4992158;28;20516;-89
2022/07/02 12:41:08;;;;;;;0.10;0.10;;;29.30;75.40;;;;;;4990758;28;20041;-89
2022/07/02 12:43:33;;;;;;;0.20;0.10;;;29.60;73.50;;;;;;5008281;28;20025;-89
2022/07/02 12:46:10;;;;;;;0.28;0.10;;;29.50;74.00;;;;;;4982873;28;20033;-89
2022/07/02 12:49:02;;;;;;;0.38;0.10;;;29.50;74.70;;;;;;5001000;28;20034;-88
2022/07/02 12:51:27;;;;;;;0.20;0.03;;;29.30;76.20;;;;;;4991739;28;20561;-89
2022/07/02 12:53:57;;;;;;;0.10;0.10;;;29.70;77.00;;;;;;4991559;28;20034;-88
2022/07/02 12:56:23;;;;;;;0.35;0.10;;;29.50;74.90;;;;;;4991705;28;20498;-89
2022/07/02 12:58:49;;;;;;;0.10;0.10;;;29.20;73.40;;;;;;4993340;28;20055;-89
2022/07/02 13:01:14;;;;;;;1.10;0.10;;;29.20;76.50;;;;;;4985332;28;20451;-89
2022/07/02 13:03:40;;;;;;;0.15;0.10;;;29.60;73.80;;;;;;4988428;28;20025;-88
2022/07/02 13:06:06;;;;;;;0.25;0.10;;;29.90;72.90;;;;;;4993112;28;20030;-88
2022/07/02 13:08:31;;;;;;;0.10;0.10;;;30.30;72.40;;;;;;4994652;28;20033;-87
2022/07/02 13:10:58;;;;;;;0.10;0.10;;;30.50;72.30;;;;;;4991273;28;20033;-86
2022/07/02 13:13:25;;;;;;;0.52;0.10;;;29.50;70.40;;;;;;5007361;28;20530;-88
2022/07/02 13:15:51;;;;;;;0.80;0.10;;;30.70;71.40;;;;;;5010196;28;20065;-88
2022/07/02 13:18:17;;;;;;;0.47;0.10;;;30.90;71.40;;;;;;4994145;28;20026;-88
2022/07/02 13:20:44;;;;;;;0.40;0.10;;;31.20;73.00;;;;;;5008018;28;20022;-88
2022/07/02 13:23:12;;;;;;;0.22;0.10;;;31.40;71.60;;;;;;5005898;28;20053;-88
2022/07/02 13:25:38;;;;;;;0.77;0.20;;;31.40;71.80;;;;;;5010079;28;20425;-89
2022/07/02 13:28:07;;;;;;;0.30;0.10;;;31.60;70.90;;;;;;4991891;28;20037;-90
2022/07/02 13:30:33;;;;;;;0.10;0.10;;;31.60;71.50;;;;;;5013042;28;20152;-90
2022/07/02 13:32:59;;;;;;;0.20;0.10;;;31.50;71.50;;;;;;4992092;28;20026;-90
2022/07/02 13:35:24;;;;;;;0.10;0.10;;;30.90;71.30;;;;;;4994477;28;20022;-89
2022/07/02 13:37:50;;;;;;;0.08;0.03;;;30.10;71.90;;;;;;5009096;28;20039;-91
2022/07/02 13:40:17;;;;;;;0.08;0.00;;;30.10;74.60;;;;;;4988840;28;20025;-91
2022/07/02 13:42:43;;;;;;;0.00;0.00;;;30.10;75.10;;;;;;4991261;28;20022;-90
2022/07/02 13:45:09;;;;;;;0.50;0.17;;;30.30;74.00;;;;;;4984963;28;20099;-90
2022/07/02 13:47:38;;;;;;;0.25;0.10;;;31.30;73.30;;;;;;5006820;28;20048;-91
2022/07/02 13:50:47;;;;;;;0.10;0.10;;;31.60;71.10;;;;;;5018847;28;20508;-91
2022/07/02 13:53:12;;;;;;;0.10;0.00;;;31.00;69.20;;;;;;5007829;28;20034;-90
2022/07/02 13:55:59;;;;;;;0.10;0.00;;;31.10;70.00;;;;;;5016414;28;20026;-91
2022/07/02 13:58:36;;;;;;;0.35;0.10;;;30.10;69.60;;;;;;5020189;28;20631;-92
2022/07/02 14:04:59;;;;;;;0.22;0.10;;;31.00;67.90;;;;;;4992755;28;20128;-91
2022/07/02 14:08:15;;;;;;;0.60;0.10;;;31.80;68.80;;;;;;4979619;28;20053;-93
2022/07/02 14:10:51;;;;;;;0.00;0.00;;;29.60;68.60;;;;;;5014214;28;20574;-92
2022/07/02 14:13:25;;;;;;;0.20;0.10;;;30.40;71.00;;;;;;4999632;28;20321;-92
2022/07/02 14:16:14;;;;;;;0.82;0.20;;;30.50;69.40;;;;;;4996900;28;20046;-92
2022/07/02 14:18:50;;;;;;;0.73;0.10;;;30.90;70.70;;;;;;5009091;28;20018;-93
2022/07/02 14:21:20;;;;;;;0.38;0.10;;;31.10;69.20;;;;;;5005585;28;20042;-93
2022/07/02 14:24:10;;;;;;;0.28;0.10;;;31.40;69.50;;;;;;5008359;28;20033;-92
2022/07/02 14:26:45;;;;;;;0.85;0.10;;;31.90;66.50;;;;;;4989162;28;20084;-92
2022/07/02 14:29:19;;;;;;;0.17;0.10;;;31.30;71.00;;;;;;4995371;28;20026;-93
2022/07/02 14:31:53;;;;;;;0.10;0.10;;;31.60;69.40;;;;;;4994779;28;20029;-92
2022/07/02 14:34:44;;;;;;;0.17;0.10;;;32.00;68.90;;;;;;4999751;28;20061;-92
2022/07/02 14:37:23;;;;;;;0.10;0.10;;;32.40;67.60;;;;;;5000108;28;20025;-92
2022/07/02 14:39:52;;;;;;;0.40;0.10;;;32.80;67.20;;;;;;4999846;28;20104;-93
2022/07/02 14:42:43;;;;;;;0.20;0.10;;;32.90;65.30;;;;;;4995059;28;20080;-93
2022/07/02 14:45:14;;;;;;;0.20;0.10;;;32.40;66.00;;;;;;4987760;28;20061;-92
2022/07/02 14:48:20;;;;;;;0.03;0.03;;;32.10;65.90;;;;;;4993667;28;20512;-93
2022/07/02 14:51:21;;;;;;;0.08;0.00;;;32.40;65.90;;;;;;4989173;28;20044;-93
2022/07/02 14:54:06;;;;;;;0.28;0.10;;;32.60;66.80;;;;;;4993031;28;20095;-94
2022/07/02 14:57:30;;;;;;;0.15;0.05;;;32.90;65.00;;;;;;5008479;28;20021;-93
2022/07/02 15:03:26;;;;;;;0.30;0.10;;;32.50;64.50;;;;;;5015730;28;20516;-92
2022/07/02 15:10:16;;;;;;;0.22;0.00;;;32.60;64.60;;;;;;5020260;28;20146;-94
2022/07/02 15:13:10;;;;;;;0.30;0.20;;;33.00;65.70;;;;;;4987077;28;20042;-92
2022/07/02 15:16:12;;;;;;;;;;;;;;;;;;;;;
2022/07/02 15:18:48;;;;;;;0.25;0.13;;;32.40;63.50;;;;;;5017594;28;20105;-93
2022/07/02 15:22:08;;;;;;;0.80;0.10;;;32.20;62.50;;;;;;5008324;28;20048;-92
2022/07/02 15:25:02;;;;;;;0.50;0.10;;;32.20;62.70;;;;;;4930601;29;20028;-93
2022/07/02 15:27:37;;;;;;;0.10;0.00;;;32.30;63.00;;;;;;4918550;29;20035;-92
2022/07/02 15:30:04;;;;;;;0.10;0.10;;;32.20;63.60;;;;;;4998687;28;20038;-88
2022/07/02 15:32:31;;;;;;;0.10;0.10;;;32.00;62.60;;;;;;5013150;28;20502;-91
2022/07/02 15:35:06;;;;;;;0.63;0.20;;;31.70;62.20;;;;;;5015170;28;20633;-91
2022/07/02 15:37:39;;;;;;;0.10;0.05;;;31.60;64.60;;;;;;4995521;28;20025;-91
2022/07/02 15:40:06;;;;;;;0.20;0.10;;;31.50;62.90;;;;;;5005795;28;20105;-91
2022/07/02 15:42:33;;;;;;;0.95;0.20;;;31.50;62.30;;;;;;4993681;28;20018;-91
2022/07/02 15:44:59;;;;;;;1.38;0.10;;;31.60;63.20;;;;;;4998419;28;20061;-91
2022/07/02 15:47:25;;;;;;;1.30;0.10;;;31.70;62.90;;;;;;4993727;28;20486;-91
2022/07/02 15:49:52;;;;;;;0.13;0.10;;;32.30;64.20;;;;;;5009727;28;20045;-91
2022/07/02 15:52:40;;;;;;;0.10;0.10;;;32.40;62.20;;;;;;4990890;28;20238;-91
2022/07/02 15:55:21;;;;;;;0.32;0.10;;;32.30;60.50;;;;;;5005123;28;20022;-91
2022/07/02 15:58:03;;;;;;;0.45;0.10;;;31.50;60.30;;;;;;5012178;28;20017;-91
2022/07/02 16:00:34;;;;;;;0.30;0.10;;;30.90;61.80;;;;;;5012640;28;20454;-91
2022/07/02 16:03:03;;;;;;;0.20;0.10;;;30.50;61.60;;;;;;5012207;28;20022;-92
2022/07/02 16:05:30;;;;;;;0.15;0.03;;;30.60;60.80;;;;;;4993377;28;20044;-91
2022/07/02 16:08:04;;;;;;;0.90;0.10;;;30.30;62.40;;;;;;4991833;28;20038;-91
2022/07/02 16:10:30;;;;;;;0.15;0.10;;;30.50;62.10;;;;;;4990298;28;20029;-90
2022/07/02 16:12:58;;;;;;;0.60;0.20;;;30.50;63.30;;;;;;5007462;28;20042;-92
2022/07/02 16:15:25;;;;;;;0.40;0.28;;;30.50;64.20;;;;;;4991296;28;20036;-92
2022/07/02 16:17:53;;;;;;;1.27;0.17;;;30.50;63.30;;;;;;4990193;28;20034;-90
2022/07/02 16:20:20;;;;;;;0.13;0.10;;;30.20;63.40;;;;;;5005194;28;20018;-91
2022/07/02 16:22:47;;;;;;;1.15;0.20;;;30.40;62.30;;;;;;4995368;28;20018;-90
2022/07/02 16:25:13;;;;;;;0.35;0.20;;;30.40;64.50;;;;;;4991167;28;20026;-89
2022/07/02 16:27:41;;;;;;;0.35;0.20;;;30.50;65.10;;;;;;5015124;28;20398;-89
2022/07/02 16:30:08;;;;;;;0.32;0.20;;;30.20;63.60;;;;;;5013273;28;20022;-92
2022/07/02 16:32:37;;;;;;;0.22;0.10;;;29.90;64.20;;;;;;5008332;28;20516;-91
2022/07/02 16:35:18;;;;;;;0.08;0.03;;;29.50;63.50;;;;;;4993781;28;20038;-91
2022/07/02 16:37:48;;;;;;;0.30;0.10;;;28.90;64.20;;;;;;5044407;23;20044;-92
2022/07/02 16:40:22;;;;;;;1.05;0.20;;;28.40;65.20;;;;;;5031242;28;20057;-92
2022/07/02 16:43:12;;;;;;;0.50;0.10;;;27.80;65.80;;;;;;5005711;28;20032;-91
2022/07/02 16:45:41;;;;;;;0.82;0.20;;;27.30;67.80;;;;;;5005249;28;20175;-92
2022/07/02 16:48:10;;;;;;;0.20;0.10;;;27.00;69.40;;;;;;5029977;28;20018;-91
2022/07/02 16:50:38;;;;;;;0.40;0.20;;;26.80;69.70;;;;;;5013714;28;20018;-92
2022/07/02 16:53:08;;;;;;;0.20;0.10;;;26.70;69.80;;;;;;5013910;28;20091;-91
2022/07/02 16:55:37;;;;;;;0.65;0.10;;;26.40;70.00;;;;;;5012432;28;20033;-91
2022/07/02 16:58:08;;;;;;;0.30;0.10;;;26.30;70.80;;;;;;5029139;28;20428;-92
2022/07/02 17:00:56;;;;;;;0.40;0.20;;;26.20;68.50;;;;;;5008446;28;20045;-93
2022/07/02 17:03:54;;;;;;;0.52;0.13;;;26.10;69.10;;;;;;5015819;28;20025;-93
2022/07/02 17:06:29;;;;;;;2.13;0.30;;;25.90;70.40;;;;;;5012116;28;20026;-92
2022/07/02 17:09:12;;;;;;;0.85;0.22;;;26.00;70.20;;;;;;5012360;28;20120;-92
2022/07/02 17:12:11;;;;;;;0.50;0.10;;;26.00;70.50;;;;;;5011967;28;20048;-92
2022/07/02 17:14:37;;;;;;;0.10;0.10;;;25.70;72.50;;;;;;5019904;28;20017;-90
2022/07/02 17:17:04;;;;;;;0.50;0.10;;;25.70;71.50;;;;;;5011849;28;20029;-90
2022/07/02 17:19:30;;;;;;;0.68;0.20;;;25.60;71.90;;;;;;5012942;28;20511;-91
2022/07/02 17:22:08;;;;;;;0.50;0.17;;;25.60;74.80;;;;;;5011064;28;20026;-91
2022/07/02 17:24:37;;;;;;;0.13;0.08;;;25.50;72.70;;;;;;5012374;28;20022;-91
2022/07/02 17:27:04;;;;;;;0.20;0.10;;;25.60;73.00;;;;;;5017420;28;20094;-91
2022/07/02 17:29:30;;;;;;;0.30;0.20;;;25.70;73.40;;;;;;5002362;28;20029;-92
2022/07/02 17:31:57;;;;;;;0.43;0.30;;;25.50;73.80;;;;;;5015532;28;20049;-91
2022/07/02 17:34:27;;;;;;;0.47;0.10;;;25.50;74.70;;;;;;5014606;28;20485;-90
2022/07/02 17:36:55;;;;;;;0.65;0.25;;;25.60;74.10;;;;;;5017248;28;20040;-91
2022/07/02 17:39:32;;;;;;;0.50;0.20;;;25.40;74.60;;;;;;5029181;28;20028;-91
2022/07/02 17:42:04;;;;;;;0.40;0.17;;;25.30;74.50;;;;;;5023106;28;20039;-90
2022/07/02 17:44:42;;;;;;;0.17;0.10;;;25.20;76.30;;;;;;5017319;28;20042;-91
2022/07/02 17:47:14;;;;;;;0.43;0.28;;;25.10;74.40;;;;;;5014006;28;20033;-92
2022/07/02 17:49:40;;;;;;;0.20;0.15;;;25.00;74.50;;;;;;5015253;28;20026;-91
2022/07/02 17:52:07;;;;;;;0.60;0.10;;;24.90;74.60;;;;;;5021006;28;20026;-91
2022/07/02 17:54:35;;;;;;;0.20;0.10;;;24.90;75.30;;;;;;5017131;28;20041;-92
2022/07/02 17:57:18;;;;;;;0.43;0.20;;;24.80;75.90;;;;;;5010038;28;20112;-92
2022/07/02 17:59:58;;;;;;;0.47;0.15;;;24.70;75.00;;;;;;5017199;28;20022;-92
2022/07/02 18:02:29;;;;;;;1.38;0.10;;;24.60;76.40;;;;;;5014451;28;20033;-91
2022/07/02 18:05:04;;;;;;;;;;;24.60;76.40;;;;;;5033812;28;20075;-91
2022/07/02 18:07:40;;;;;;;0.10;0.08;;;24.60;77.30;;;;;;5019608;28;19916;-91
2022/07/02 18:10:15;;;;;;;0.68;0.20;;;24.50;76.40;;;;;;5013731;28;20045;-88
2022/07/02 18:12:55;;;;;;;0.38;0.20;;;24.50;76.60;;;;;;5027820;28;20037;-91
2022/07/02 18:15:27;;;;;;;0.45;0.10;;;24.30;78.30;;;;;;5016121;28;20030;-91
2022/07/02 18:18:04;;;;;;;2.03;0.20;;;24.40;77.10;;;;;;5014323;28;20443;-90
2022/07/02 18:20:30;;;;;;;0.22;0.17;;;24.30;78.50;;;;;;5024367;23;20084;-86
2022/07/02 18:22:56;;;;;;;0.60;0.15;;;24.20;78.50;;;;;;5004531;28;20022;-85
2022/07/02 18:25:22;;;;;;;0.30;0.20;;;24.10;78.00;;;;;;5026137;28;20056;-86
2022/07/02 18:27:48;;;;;;;1.13;0.20;;;24.10;77.80;;;;;;5032935;28;20013;-86
2022/07/02 18:30:15;;;;;;;1.20;0.50;;;24.00;78.10;;;;;;5022784;28;20020;-85
2022/07/02 18:32:40;;;;;;;0.45;0.20;;;23.90;79.10;;;;;;5039632;28;20024;-84
2022/07/02 18:35:07;;;;;;;0.73;0.20;;;24.00;77.70;;;;;;5050914;28;20060;-84
2022/07/02 18:37:33;;;;;;;0.60;0.20;;;23.90;78.50;;;;;;5020795;28;20495;-85
2022/07/02 18:39:59;;;;;;;0.32;0.20;;;23.80;78.20;;;;;;5025801;28;20116;-85
2022/07/02 18:42:29;;;;;;;2.40;0.40;;;23.80;78.60;;;;;;5027699;28;20473;-84
2022/07/02 18:44:55;;;;;;;0.60;0.30;;;23.80;79.70;;;;;;5046539;28;20033;-84
2022/07/02 18:47:21;;;;;;;0.47;0.20;;;23.70;79.00;;;;;;5043138;28;20025;-85
2022/07/02 18:49:48;;;;;;;1.02;0.30;;;23.70;80.10;;;;;;5040661;28;20033;-84
2022/07/02 18:52:14;;;;;;;0.32;0.10;;;23.70;79.40;;;;;;5046120;28;20432;-85
2022/07/02 18:54:40;;;;;;;0.82;0.20;;;23.70;79.90;;;;;;5024617;28;20385;-85
2022/07/02 18:57:14;;;;;;;1.15;0.35;;;23.60;80.50;;;;;;5041251;28;20084;-87
2022/07/02 18:59:46;;;;;;;1.42;0.60;;;23.60;80.90;;;;;;5029302;28;20028;-86
2022/07/02 19:02:14;;;;;;;1.73;0.70;;;23.50;81.20;;;;;;5028241;28;20033;-86
2022/07/02 19:04:40;;;;;;;3.05;0.60;;;23.40;83.00;;;;;;5046240;28;20482;-85
2022/07/02 19:07:06;;;;;;;1.52;0.50;;;23.30;82.60;;;;;;5040492;28;20040;-86
2022/07/02 19:09:31;;;;;;;2.17;0.80;;;23.30;83.00;;;;;;5017543;28;20024;-85
2022/07/02 19:11:57;;;;;;;2.10;0.70;;;23.20;82.50;;;;;;5041807;28;20021;-88
2022/07/02 19:14:23;;;;;;;2.08;0.73;;;23.20;83.50;;;;;;5042640;28;20051;-88
2022/07/02 19:16:49;;;;;;;2.40;0.88;;;23.10;83.00;;;;;;5026338;28;20055;-86
2022/07/02 19:19:15;;;;;;;5.47;1.10;;;23.10;83.30;;;;;;5037241;28;20032;-88
2022/07/02 19:21:41;;;;;;;1.85;0.68;;;23.00;83.40;;;;;;5021577;28;20044;-85
2022/07/02 19:24:07;;;;;;;2.08;0.70;;;23.00;85.10;;;;;;5022138;28;20026;-88
2022/07/02 19:32:06;;;;;;;1.05;0.30;;;22.80;84.20;;;;;;5039786;28;20397;-85
2022/07/02 19:34:32;;;;;;;0.68;0.22;;;22.70;84.80;;;;;;5036894;28;20022;-87
2022/07/02 19:36:58;;;;;;;0.55;0.20;;;22.60;84.80;;;;;;5037565;28;20018;-88
2022/07/02 19:39:24;;;;;;;1.85;0.30;;;22.60;83.80;;;;;;5029200;28;20017;-85
2022/07/02 19:41:50;;;;;;;1.90;0.35;;;22.50;85.50;;;;;;5021131;28;20010;-86
2022/07/02 19:44:16;;;;;;;0.43;0.20;;;22.40;85.50;;;;;;5024582;28;20137;-87
2022/07/02 19:46:42;;;;;;;1.23;0.30;;;22.40;84.50;;;;;;5021251;28;20029;-84
2022/07/02 19:49:08;;;;;;;1.30;0.32;;;22.30;85.40;;;;;;5020908;28;20117;-87
2022/07/02 19:51:34;;;;;;;1.52;0.38;;;22.30;86.20;;;;;;5017654;28;20025;-87
2022/07/02 19:54:00;;;;;;;0.60;0.20;;;22.20;86.80;;;;;;5020514;28;20034;-87
2022/07/02 19:56:25;;;;;;;1.15;0.30;;;22.10;86.30;;;;;;5033295;28;20021;-87
2022/07/02 19:58:51;;;;;;;1.13;0.50;;;22.00;85.20;;;;;;5025841;28;20470;-87
2022/07/02 20:01:17;;;;;;;1.05;0.43;;;22.00;85.00;;;;;;5021552;28;20081;-86
2022/07/02 20:03:43;;;;;;;1.52;0.60;;;21.90;85.10;;;;;;5016475;28;20069;-87
2022/07/02 20:06:25;;;;;;;1.75;0.50;;;21.80;85.40;;;;;;5031692;28;20018;-87
2022/07/02 20:08:55;;;;;;;1.33;0.40;;;21.80;85.90;;;;;;5033695;28;20033;-85
2022/07/02 20:11:21;;;;;;;1.77;0.43;;;21.70;86.40;;;;;;5035356;28;20029;-86